createdAt,value
2018-04-11T00:00:31.215Z,61.90
2018-04-11T00:02:59.525Z,62.00
2018-04-11T00:05:29.294Z,63.70
2018-04-11T00:07:59.665Z,64.00
2018-04-11T00:10:29.099Z,64.00
2018-04-11T00:12:57.414Z,64.00
2018-04-11T00:15:25.721Z,64.20
2018-04-11T00:17:54.063Z,64.50
2018-04-11T00:20:23.393Z,63.80
2018-04-11T00:22:51.689Z,63.80
2018-04-11T00:25:20.089Z,63.80
2018-04-11T00:27:48.638Z,63.20
2018-04-11T00:30:16.933Z,63.10
2018-04-11T00:32:45.341Z,62.60
2018-04-11T00:35:13.659Z,62.40
2018-04-11T00:37:41.945Z,62.50
2018-04-11T00:40:10.309Z,62.80
2018-04-11T00:42:38.628Z,62.90
2018-04-11T00:45:07.192Z,63.10
2018-04-11T00:47:36.609Z,63.00
2018-04-11T00:50:05.031Z,63.00
2018-04-11T00:52:33.399Z,62.50
2018-04-11T00:55:02.604Z,62.60
2018-04-11T00:57:31.849Z,63.00
2018-04-11T01:00:00.507Z,63.00
2018-04-11T01:02:28.901Z,63.60
2018-04-11T01:04:57.281Z,63.80
2018-04-11T01:07:25.680Z,64.50
2018-04-11T01:09:55.681Z,64.00
2018-04-11T01:12:24.048Z,63.90
2018-04-11T01:14:52.471Z,64.20
2018-04-11T01:17:20.855Z,63.70
2018-04-11T01:19:49.360Z,63.30
2018-04-11T01:22:18.524Z,62.60
2018-04-11T01:24:47.113Z,62.60
2018-04-11T01:27:15.565Z,62.20
2018-04-11T01:29:43.907Z,62.20
2018-04-11T01:32:12.219Z,62.10
2018-04-11T01:34:40.602Z,62.00
2018-04-11T01:37:10.545Z,61.50
2018-04-11T01:39:39.056Z,61.40
2018-04-11T01:42:07.724Z,61.20
2018-04-11T01:44:36.844Z,61.40
2018-04-11T01:47:05.229Z,61.40
2018-04-11T01:49:33.799Z,61.50
2018-04-11T01:52:02.970Z,61.60
2018-04-11T01:54:31.295Z,61.50
2018-04-11T01:56:59.641Z,61.50
2018-04-11T01:59:28.790Z,61.60
2018-04-11T02:01:57.221Z,61.60
2018-04-11T02:04:26.436Z,61.80
2018-04-11T02:06:54.716Z,61.80
2018-04-11T02:09:23.003Z,61.60
2018-04-11T02:11:52.309Z,61.80
2018-04-11T02:14:22.818Z,61.70
2018-04-11T02:16:51.140Z,61.80
2018-04-11T02:19:19.502Z,61.70
2018-04-11T02:21:47.840Z,61.90
2018-04-11T02:24:16.138Z,62.00
2018-04-11T02:26:44.599Z,62.10
2018-04-11T02:29:13.118Z,61.80
2018-04-11T02:31:41.662Z,61.90
2018-04-11T02:34:10.052Z,62.10
2018-04-11T02:36:38.614Z,62.30
2018-04-11T02:39:07.893Z,62.90
2018-04-11T02:41:36.366Z,62.90
2018-04-11T02:44:05.684Z,62.80
2018-04-11T02:46:35.882Z,62.90
2018-04-11T02:49:04.160Z,62.80
2018-04-11T02:51:32.472Z,62.60
2018-04-11T02:54:01.540Z,63.30
2018-04-11T02:56:30.003Z,63.30
2018-04-11T02:58:58.293Z,63.00
2018-04-11T03:01:26.603Z,63.20
2018-04-11T03:03:55.082Z,63.50
2018-04-11T03:06:23.552Z,63.70
2018-04-11T03:08:52.141Z,63.60
2018-04-11T03:11:21.261Z,64.90
2018-04-11T03:13:49.693Z,65.00
2018-04-11T03:16:18.006Z,64.30
2018-04-11T03:18:46.389Z,64.60
2018-04-11T03:21:14.857Z,64.00
2018-04-11T03:23:43.950Z,63.70
2018-04-11T03:26:13.147Z,63.70
2018-04-11T03:28:42.451Z,63.60
2018-04-11T03:31:11.040Z,63.70
2018-04-11T03:33:39.386Z,63.80
2018-04-11T03:36:07.817Z,64.00
2018-04-11T03:38:36.129Z,63.90
2018-04-11T03:41:05.196Z,64.00
2018-04-11T03:43:33.446Z,64.00
2018-04-11T03:46:01.827Z,63.70
2018-04-11T03:48:31.878Z,63.70
2018-04-11T03:51:02.840Z,63.70
2018-04-11T03:53:33.960Z,63.80
2018-04-11T03:56:02.286Z,63.80
2018-04-11T03:58:31.537Z,63.90
2018-04-11T04:00:59.961Z,63.90
2018-04-11T04:03:29.061Z,64.20
2018-04-11T04:05:58.135Z,64.30
2018-04-11T04:08:27.410Z,65.10
2018-04-11T04:10:55.734Z,64.50
2018-04-11T04:13:42.813Z,64.90
2018-04-11T04:16:28.809Z,64.90
2018-04-11T04:19:15.066Z,64.70
2018-04-11T04:21:43.389Z,64.60
2018-04-11T04:24:11.704Z,64.30
2018-04-11T04:26:40.088Z,64.10
2018-04-11T04:29:08.562Z,64.20
2018-04-11T04:31:37.162Z,64.30
2018-04-11T04:34:05.430Z,64.10
2018-04-11T04:36:33.796Z,64.60
2018-04-11T04:39:02.135Z,64.70
2018-04-11T04:41:30.451Z,65.00
2018-04-11T04:43:58.765Z,65.50
2018-04-11T04:46:27.101Z,65.20
2018-04-11T04:48:56.460Z,65.00
2018-04-11T04:51:24.976Z,64.80
2018-04-11T04:53:53.364Z,64.70
2018-04-11T04:56:21.895Z,64.70
2018-04-11T04:58:50.231Z,64.80
2018-04-11T05:01:18.758Z,65.00
2018-04-11T05:03:47.522Z,65.30
2018-04-11T05:06:15.853Z,65.50
2018-04-11T05:08:44.965Z,67.00
2018-04-11T05:11:14.131Z,67.50
2018-04-11T05:13:42.441Z,67.50
2018-04-11T05:16:11.561Z,68.50
2018-04-11T05:18:39.819Z,68.40
2018-04-11T05:21:09.409Z,68.70
2018-04-11T05:23:38.457Z,67.80
2018-04-11T05:26:06.743Z,67.80
2018-04-11T05:28:35.079Z,67.30
2018-04-11T05:31:03.478Z,66.80
2018-04-11T05:33:31.783Z,66.40
2018-04-11T05:36:00.385Z,66.10
2018-04-11T05:38:28.954Z,66.80
2018-04-11T05:40:57.490Z,66.50
2018-04-11T05:43:26.246Z,66.10
2018-04-11T05:45:55.349Z,66.20
2018-04-11T05:48:24.554Z,65.40
2018-04-11T05:50:52.909Z,65.40
2018-04-11T05:53:21.245Z,65.00
2018-04-11T05:55:49.619Z,64.70
2018-04-11T05:58:18.365Z,64.60
2018-04-11T06:00:47.974Z,64.50
2018-04-11T06:03:17.077Z,64.70
2018-04-11T06:05:45.387Z,64.70
2018-04-11T06:08:13.747Z,64.90
2018-04-11T06:10:42.152Z,64.60
2018-04-11T06:13:10.467Z,64.60
2018-04-11T06:15:39.698Z,65.60
2018-04-11T06:18:08.239Z,65.60
2018-04-11T06:20:37.499Z,65.70
2018-04-11T06:23:05.914Z,65.10
2018-04-11T06:25:34.251Z,64.60
2018-04-11T06:28:02.686Z,64.50
2018-04-11T06:30:31.027Z,65.10
2018-04-11T06:32:59.343Z,65.60
2018-04-11T06:35:28.593Z,65.10
2018-04-11T06:37:57.212Z,65.10
2018-04-11T06:40:25.724Z,64.90
2018-04-11T06:42:55.604Z,65.90
2018-04-11T06:45:24.176Z,66.10
2018-04-11T06:47:52.492Z,65.90
2018-04-11T06:50:21.568Z,65.20
2018-04-11T06:52:49.913Z,65.20
2018-04-11T06:55:18.359Z,65.20
2018-04-11T06:57:46.789Z,65.60
2018-04-11T07:00:15.851Z,65.90
2018-04-11T07:02:44.396Z,65.90
2018-04-11T07:05:14.641Z,66.00
2018-04-11T07:07:42.957Z,66.00
2018-04-11T07:10:11.287Z,65.90
2018-04-11T07:12:39.637Z,66.10
2018-04-11T07:15:07.963Z,65.90
2018-04-11T07:17:36.982Z,65.70
2018-04-11T07:20:05.277Z,65.50
2018-04-11T07:22:33.643Z,65.40
2018-04-11T07:25:01.952Z,65.00
2018-04-11T07:27:30.342Z,65.10
2018-04-11T07:29:58.948Z,64.80
2018-04-11T07:32:27.936Z,64.50
2018-04-11T07:34:57.233Z,65.60
2018-04-11T07:37:25.527Z,65.60
2018-04-11T07:39:54.038Z,65.30
2018-04-11T07:42:22.450Z,64.90
2018-04-11T07:44:50.759Z,64.80
2018-04-11T07:47:19.138Z,65.00
2018-04-11T07:49:47.533Z,65.20
2018-04-11T07:52:15.831Z,64.50
2018-04-11T07:54:44.189Z,64.50
2018-04-11T07:57:12.558Z,64.30
2018-04-11T07:59:40.962Z,64.10
2018-04-11T08:02:09.504Z,64.20
2018-04-11T08:04:39.228Z,63.40
2018-04-11T08:07:07.948Z,63.30
2018-04-11T08:09:36.271Z,63.10
2018-04-11T08:12:04.668Z,62.90
2018-04-11T08:14:33.121Z,63.10
2018-04-11T08:17:01.470Z,62.60
2018-04-11T08:19:30.013Z,62.50
2018-04-11T08:21:58.298Z,62.70
2018-04-11T08:24:26.598Z,63.50
2018-04-11T08:26:55.812Z,63.30
2018-04-11T08:29:24.894Z,62.90
2018-04-11T08:31:53.284Z,62.90
2018-04-11T08:34:22.368Z,62.50
2018-04-11T08:36:52.452Z,61.70
2018-04-11T08:39:20.833Z,61.70
2018-04-11T08:41:49.186Z,60.80
2018-04-11T08:44:17.504Z,61.40
2018-04-11T08:46:45.952Z,60.50
2018-04-11T08:49:14.283Z,60.70
2018-04-11T08:51:42.563Z,61.10
2018-04-11T08:54:12.044Z,60.70
2018-04-11T08:56:41.309Z,60.70
2018-04-11T08:59:09.657Z,60.70
2018-04-11T09:01:38.935Z,61.00
2018-04-11T09:04:07.338Z,61.00
2018-04-11T09:06:35.823Z,60.50
2018-04-11T09:09:05.857Z,60.30
2018-04-11T09:11:34.258Z,60.00
2018-04-11T09:14:02.541Z,60.00
2018-04-11T09:16:31.134Z,59.30
2018-04-11T09:18:59.522Z,59.10
2018-04-11T09:21:28.173Z,58.40
2018-04-11T09:23:56.554Z,58.40
2018-04-11T09:26:25.176Z,58.90
2018-04-11T09:28:53.483Z,58.10
2018-04-11T09:31:21.942Z,58.20
2018-04-11T09:33:51.013Z,57.20
2018-04-11T09:36:19.329Z,56.80
2018-04-11T09:38:48.509Z,56.70
2018-04-11T09:41:18.373Z,56.60
2018-04-11T09:43:46.869Z,56.60
2018-04-11T09:46:15.175Z,56.00
2018-04-11T09:48:43.500Z,55.50
2018-04-11T09:51:11.828Z,55.30
2018-04-11T09:53:40.094Z,54.80
2018-04-11T09:56:08.675Z,54.60
2018-04-11T09:58:37.204Z,54.10
2018-04-11T10:01:05.540Z,53.60
2018-04-11T10:03:33.981Z,53.80
2018-04-11T10:06:02.270Z,54.30
2018-04-11T10:08:30.604Z,54.20
2018-04-11T10:11:00.745Z,55.20
2018-04-11T10:13:29.200Z,55.20
2018-04-11T10:15:58.328Z,54.80
2018-04-11T10:18:26.712Z,54.70
2018-04-11T10:20:55.225Z,54.80
2018-04-11T10:23:23.769Z,55.30
2018-04-11T10:25:52.043Z,55.70
2018-04-11T10:28:20.406Z,56.00
2018-04-11T10:30:48.875Z,56.00
2018-04-11T10:33:18.189Z,56.40
2018-04-11T10:35:46.694Z,56.40
2018-04-11T10:38:15.147Z,55.50
2018-04-11T10:40:43.481Z,55.10
2018-04-11T10:43:13.144Z,54.70
2018-04-11T10:45:41.683Z,54.10
2018-04-11T10:48:09.959Z,54.10
2018-04-11T10:50:38.504Z,53.50
2018-04-11T10:53:06.928Z,54.30
2018-04-11T10:55:35.324Z,53.50
2018-04-11T10:58:04.909Z,53.10
2018-04-11T11:00:33.353Z,53.10
2018-04-11T11:03:01.671Z,51.90
2018-04-11T11:05:30.800Z,50.70
2018-04-11T11:07:59.085Z,50.60
2018-04-11T11:10:27.418Z,50.50
2018-04-11T11:12:55.793Z,50.40
2018-04-11T11:15:24.108Z,50.50
2018-04-11T11:17:52.741Z,50.40
2018-04-11T11:20:21.184Z,50.50
2018-04-11T11:22:49.520Z,50.60
2018-04-11T11:25:17.789Z,50.30
2018-04-11T11:27:47.031Z,49.30
2018-04-11T11:30:15.350Z,49.30
2018-04-11T11:32:43.670Z,48.90
2018-04-11T11:35:12.097Z,48.60
2018-04-11T11:37:40.634Z,48.30
2018-04-11T11:40:10.354Z,47.40
2018-04-11T11:42:39.093Z,47.40
2018-04-11T11:45:07.421Z,47.30
2018-04-11T11:47:35.789Z,47.10
2018-04-11T11:50:04.101Z,46.70
2018-04-11T11:52:32.436Z,47.30
2018-04-11T11:55:01.576Z,47.40
2018-04-11T11:57:30.012Z,47.40
2018-04-11T11:59:58.773Z,47.60
2018-04-11T12:02:27.503Z,47.30
2018-04-11T12:04:55.950Z,47.70
2018-04-11T12:07:25.384Z,46.60
2018-04-11T12:09:53.742Z,46.70
2018-04-11T12:12:22.570Z,46.70
2018-04-11T12:14:51.262Z,46.80
2018-04-11T12:17:19.729Z,46.40
2018-04-11T12:19:48.044Z,46.90
2018-04-11T12:22:16.551Z,46.60
2018-04-11T12:24:45.991Z,46.40
2018-04-11T12:27:14.530Z,46.40
2018-04-11T12:29:43.718Z,46.90
2018-04-11T12:32:12.044Z,46.10
2018-04-11T12:34:40.641Z,45.40
2018-04-11T12:37:09.254Z,45.90
2018-04-11T12:39:37.726Z,45.60
2018-04-11T12:42:07.661Z,45.70
2018-04-11T12:44:36.923Z,46.30
2018-04-11T12:47:06.419Z,46.30
2018-04-11T12:49:35.037Z,46.30
2018-04-11T12:52:03.567Z,46.10
2018-04-11T12:54:32.014Z,46.20
2018-04-11T12:57:00.361Z,46.10
2018-04-11T12:59:28.696Z,49.40
2018-04-11T13:01:57.196Z,51.30
2018-04-11T13:04:25.703Z,51.50
2018-04-11T13:06:55.186Z,53.50
2018-04-11T13:09:23.554Z,53.50
2018-04-11T13:11:51.909Z,53.70
2018-04-11T13:14:20.991Z,54.00
2018-04-11T13:16:50.229Z,53.90
2018-04-11T13:19:20.104Z,54.30
2018-04-11T13:21:50.441Z,54.80
2018-04-11T13:24:19.824Z,55.20
2018-04-11T13:26:49.033Z,56.20
2018-04-11T13:29:18.141Z,55.80
2018-04-11T13:31:46.631Z,55.70
2018-04-11T13:34:14.996Z,55.70
2018-04-11T13:36:43.525Z,55.20
2018-04-11T13:39:12.845Z,55.60
2018-04-11T13:41:41.390Z,55.60
2018-04-11T13:44:09.758Z,56.40
2018-04-11T13:46:38.108Z,55.90
2018-04-11T13:49:07.222Z,56.00
2018-04-11T13:51:36.433Z,55.20
2018-04-11T13:54:04.811Z,55.20
2018-04-11T13:56:35.084Z,55.20
2018-04-11T13:59:04.207Z,54.60
2018-04-11T14:01:33.345Z,53.80
2018-04-11T14:04:01.925Z,53.90
2018-04-11T14:06:30.532Z,53.80
2018-04-11T14:08:59.727Z,54.40
2018-04-11T14:11:28.112Z,54.40
2018-04-11T14:13:56.413Z,54.90
2018-04-11T14:16:25.760Z,55.80
2018-04-11T14:18:54.062Z,55.80
2018-04-11T14:21:22.477Z,56.70
2018-04-11T14:23:52.072Z,57.50
2018-04-11T14:26:21.418Z,57.40
2018-04-11T14:28:49.891Z,57.40
2018-04-11T14:31:19.428Z,57.50
2018-04-11T14:33:47.900Z,57.50
2018-04-11T14:36:16.324Z,58.60
2018-04-11T14:38:45.515Z,57.50
2018-04-11T14:41:13.930Z,57.50
2018-04-11T14:43:42.217Z,58.40
2018-04-11T14:46:10.602Z,58.60
2018-04-11T14:48:39.064Z,59.40
2018-04-11T14:51:07.716Z,60.00
2018-04-11T14:53:36.866Z,59.70
2018-04-11T14:56:05.205Z,59.60
2018-04-11T14:58:35.260Z,59.40
2018-04-11T15:01:05.260Z,59.20
2018-04-11T15:03:35.227Z,59.30
2018-04-11T15:06:05.196Z,59.10
2018-04-11T15:08:34.829Z,59.10
2018-04-11T15:11:03.377Z,59.60
2018-04-11T15:13:31.761Z,59.90
2018-04-11T15:16:00.100Z,60.10
2018-04-11T15:18:28.604Z,59.90
2018-04-11T15:20:57.115Z,59.60
2018-04-11T15:23:25.701Z,59.10
2018-04-11T15:25:54.037Z,59.60
2018-04-11T15:28:26.357Z,58.90
2018-04-11T15:30:54.780Z,58.90
2018-04-11T15:33:24.029Z,58.60
2018-04-11T15:35:52.594Z,58.60
2018-04-11T15:38:21.021Z,58.70
2018-04-11T15:40:49.480Z,58.80
2018-04-11T15:43:17.991Z,58.80
2018-04-11T15:45:46.637Z,58.70
2018-04-11T15:48:15.007Z,58.40
2018-04-11T15:50:43.441Z,58.20
2018-04-11T15:53:12.946Z,58.20
2018-04-11T15:55:42.057Z,58.50
2018-04-11T15:58:11.185Z,58.80
2018-04-11T16:00:39.561Z,58.80
2018-04-11T16:03:07.966Z,59.00
2018-04-11T16:05:36.368Z,59.00
2018-04-11T16:08:04.886Z,58.80
2018-04-11T16:10:33.273Z,58.80
2018-04-11T16:13:01.646Z,58.90
2018-04-11T16:15:30.137Z,58.50
2018-04-11T16:17:58.563Z,58.80
2018-04-11T16:20:27.791Z,58.60
2018-04-11T16:22:56.280Z,58.60
2018-04-11T16:25:24.636Z,58.90
2018-04-11T16:27:53.713Z,58.70
2018-04-11T16:30:22.081Z,58.70
2018-04-11T16:32:50.452Z,58.40
2018-04-11T16:35:18.861Z,58.30
2018-04-11T16:37:47.994Z,58.10
2018-04-11T16:40:16.904Z,58.10
2018-04-11T16:42:45.276Z,58.10
2018-04-11T16:45:13.862Z,58.30
2018-04-11T16:47:42.417Z,58.10
2018-04-11T16:50:10.930Z,58.20
2018-04-11T16:52:40.871Z,58.40
2018-04-11T16:55:09.221Z,58.30
2018-04-11T16:57:38.011Z,58.00
2018-04-11T17:00:06.388Z,57.40
2018-04-11T17:02:34.960Z,57.30
2018-04-11T17:05:03.268Z,57.20
2018-04-11T17:07:31.736Z,57.00
2018-04-11T17:10:00.046Z,57.10
2018-04-11T17:12:28.465Z,57.50
2018-04-11T17:14:56.930Z,57.70
2018-04-11T17:17:26.300Z,58.60
2018-04-11T17:19:54.851Z,58.60
2018-04-11T17:22:41.225Z,58.40
2018-04-11T17:25:27.436Z,58.80
2018-04-11T17:28:14.052Z,58.80
2018-04-11T17:34:04.264Z,59.50
2018-04-11T17:36:32.643Z,59.40
2018-04-11T17:39:01.225Z,58.80
2018-04-11T17:41:30.809Z,58.50
2018-04-11T17:43:59.172Z,58.50
2018-04-11T17:46:27.661Z,58.70
2018-04-11T17:48:56.162Z,58.80
2018-04-11T17:51:24.776Z,58.60
2018-04-11T17:53:53.384Z,58.50
2018-04-11T17:56:21.815Z,58.40
2018-04-11T17:58:50.429Z,58.70
2018-04-11T18:01:18.778Z,58.50
2018-04-11T18:03:47.235Z,58.50
2018-04-11T18:06:15.607Z,58.40
2018-04-11T18:08:44.809Z,58.80
2018-04-11T18:11:13.312Z,58.70
2018-04-11T18:13:41.776Z,58.70
2018-04-11T18:16:10.263Z,58.70
2018-04-11T18:18:38.686Z,58.70
2018-04-11T18:21:07.117Z,58.40
2018-04-11T18:23:35.474Z,58.60
2018-04-11T18:26:04.696Z,59.80
2018-04-11T18:28:33.258Z,59.80
2018-04-11T18:31:02.492Z,61.00
2018-04-11T18:33:30.872Z,61.00
2018-04-11T18:35:59.228Z,60.40
2018-04-11T18:38:27.933Z,60.90
2018-04-11T18:40:56.367Z,75.90
2018-04-11T18:43:26.612Z,59.80
2018-04-11T18:45:54.970Z,59.80
2018-04-11T18:48:24.203Z,50.70
2018-04-11T18:50:52.592Z,50.60
2018-04-11T18:53:21.088Z,51.20
2018-04-11T18:55:49.662Z,51.90
2018-04-11T18:58:18.252Z,53.60
2018-04-11T19:00:46.859Z,54.10
2018-04-11T19:03:15.300Z,54.70
2018-04-11T19:05:43.856Z,56.60
2018-04-11T19:08:13.104Z,57.20
2018-04-11T19:10:42.393Z,57.80
2018-04-11T19:13:10.926Z,57.80
2018-04-11T19:15:40.123Z,57.60
2018-04-11T19:18:09.312Z,57.40
2018-04-11T19:20:37.839Z,57.40
2018-04-11T19:23:06.245Z,58.40
2018-04-11T19:25:34.657Z,59.60
2018-04-11T19:28:03.997Z,59.80
2018-04-11T19:30:32.616Z,59.80
2018-04-11T19:33:01.453Z,59.20
2018-04-11T19:35:30.013Z,59.30
2018-04-11T19:37:58.517Z,59.10
2018-04-11T19:40:28.925Z,58.60
2018-04-11T19:42:58.493Z,58.20
2018-04-11T19:45:27.158Z,58.30
2018-04-11T19:47:55.770Z,58.50
2018-04-11T19:50:24.253Z,58.30
2018-04-11T19:52:52.707Z,58.10
2018-04-11T19:55:21.071Z,58.00
2018-04-11T19:57:49.505Z,57.80
2018-04-11T20:00:17.860Z,58.30
2018-04-11T20:02:46.139Z,58.20
2018-04-11T20:05:14.687Z,58.20
2018-04-11T20:07:43.072Z,58.70
2018-04-11T20:10:11.418Z,59.10
2018-04-11T20:12:41.825Z,58.40
2018-04-11T20:15:10.359Z,58.40
2018-04-11T20:17:38.760Z,58.60
2018-04-11T20:20:07.132Z,58.80
2018-04-11T20:22:35.589Z,58.90
2018-04-11T20:25:04.045Z,59.00
2018-04-11T20:27:33.396Z,58.90
2018-04-11T20:30:01.751Z,58.90
2018-04-11T20:32:30.455Z,58.60
2018-04-11T20:34:58.787Z,58.60
2018-04-11T20:37:28.123Z,58.40
2018-04-11T20:39:56.547Z,58.40
2018-04-11T20:42:24.886Z,58.70
2018-04-11T20:44:53.418Z,59.30
2018-04-11T20:47:21.831Z,59.40
2018-04-11T20:49:50.401Z,59.80
2018-04-11T20:52:18.752Z,60.00
2018-04-11T20:54:47.087Z,60.50
2018-04-11T20:57:15.462Z,60.20
2018-04-11T20:59:43.844Z,61.20
2018-04-11T21:02:13.615Z,61.40
2018-04-11T21:04:42.223Z,61.80
2018-04-11T21:07:10.726Z,61.90
2018-04-11T21:09:39.047Z,62.10
2018-04-11T21:12:07.674Z,62.30
2018-04-11T21:14:37.177Z,62.70
2018-04-11T21:17:05.530Z,62.70
2018-04-11T21:19:34.668Z,63.60
2018-04-11T21:22:03.043Z,63.60
2018-04-11T21:24:31.809Z,63.80
2018-04-11T21:27:00.137Z,63.90
2018-04-11T21:29:30.283Z,64.20
2018-04-11T21:31:58.707Z,64.20
2018-04-11T21:34:27.032Z,64.20
2018-04-11T21:36:56.152Z,64.70
2018-04-11T21:39:24.513Z,64.70
2018-04-11T21:41:53.553Z,65.10
2018-04-11T21:44:22.071Z,65.10
2018-04-11T21:46:50.381Z,65.40
2018-04-11T21:49:18.769Z,65.90
2018-04-11T21:51:47.359Z,65.90
2018-04-11T21:54:15.824Z,66.00
2018-04-11T21:56:44.188Z,65.90
2018-04-11T21:59:13.277Z,65.80
2018-04-11T22:01:42.487Z,66.00
2018-04-11T22:04:10.798Z,65.90
2018-04-11T22:06:39.109Z,66.00
2018-04-11T22:09:07.522Z,66.00
2018-04-11T22:11:36.667Z,66.00
2018-04-11T22:14:04.959Z,66.60
2018-04-11T22:16:34.102Z,66.10
2018-04-11T22:19:04.089Z,66.20
2018-04-11T22:21:34.317Z,66.30
2018-04-11T22:24:03.398Z,66.30
2018-04-11T22:26:31.762Z,66.20
2018-04-11T22:29:00.117Z,66.20
2018-04-11T22:31:28.491Z,66.30
2018-04-11T22:33:56.912Z,66.70
2018-04-11T22:36:26.001Z,66.80
2018-04-11T22:38:54.397Z,66.30
2018-04-11T22:41:23.511Z,66.50
2018-04-11T22:43:52.590Z,66.80
2018-04-11T22:46:21.884Z,67.20
2018-04-11T22:48:50.957Z,67.70
2018-04-11T22:51:19.333Z,67.30
2018-04-11T22:53:47.678Z,67.50
2018-04-11T22:56:15.995Z,67.50
2018-04-11T22:58:44.564Z,67.30
2018-04-11T23:01:13.014Z,67.60
2018-04-11T23:03:41.352Z,67.70
2018-04-11T23:06:09.859Z,67.80
2018-04-11T23:08:38.268Z,67.80
2018-04-11T23:11:06.716Z,67.70
2018-04-11T23:13:35.197Z,68.00
2018-04-11T23:16:03.551Z,68.00
2018-04-11T23:18:31.834Z,67.60
2018-04-11T23:21:01.345Z,68.20
2018-04-11T23:23:30.433Z,69.10
2018-04-11T23:26:00.687Z,69.60
2018-04-11T23:28:29.317Z,69.00
2018-04-11T23:30:57.819Z,68.90
2018-04-11T23:33:26.948Z,68.70
2018-04-11T23:35:55.303Z,68.70
2018-04-11T23:38:24.593Z,68.80
2018-04-11T23:40:54.523Z,68.20
2018-04-11T23:43:22.999Z,68.20
2018-04-11T23:45:51.323Z,68.50
2018-04-11T23:48:19.641Z,68.40
2018-04-11T23:50:47.962Z,68.20
2018-04-11T23:53:16.271Z,68.30
2018-04-11T23:55:44.634Z,68.40
2018-04-11T23:58:13.232Z,68.50
